sensor_id;sensor_type;location;lat;lon;timestamp;temperature;humidity
38726;DHT22;24474;48.906;8.808;2023-05-07T00:02:19;13.80;99.90
38726;DHT22;24474;48.906;8.808;2023-05-07T00:04:46;13.80;99.90
38726;DHT22;24474;48.906;8.808;2023-05-07T00:07:13;13.80;99.90
38726;DHT22;24474;48.906;8.808;2023-05-07T00:09:38;13.70;99.90
38726;DHT22;24474;48.906;8.808;2023-05-07T00:12:06;13.70;99.90
38726;DHT22;24474;48.906;8.808;2023-05-07T00:14:34;13.70;99.90
38726;DHT22;24474;48.906;8.808;2023-05-07T00:16:59;13.70;99.90
38726;DHT22;24474;48.906;8.808;2023-05-07T00:19:25;13.70;99.90
38726;DHT22;24474;48.906;8.808;2023-05-07T00:21:52;13.70;99.90
38726;DHT22;24474;48.906;8.808;2023-05-07T00:24:20;13.70;99.90
38726;DHT22;24474;48.906;8.808;2023-05-07T00:26:47;13.60;99.90
38726;DHT22;24474;48.906;8.808;2023-05-07T00:29:14;13.60;99.90
38726;DHT22;24474;48.906;8.808;2023-05-07T00:31:41;13.60;99.90
38726;DHT22;24474;48.906;8.808;2023-05-07T00:34:07;13.60;99.90
38726;DHT22;24474;48.906;8.808;2023-05-07T00:36:34;13.60;99.90
38726;DHT22;24474;48.906;8.808;2023-05-07T00:39:05;13.60;99.90
38726;DHT22;24474;48.906;8.808;2023-05-07T00:41:31;13.50;99.90
38726;DHT22;24474;48.906;8.808;2023-05-07T00:44:00;13.50;99.90
38726;DHT22;24474;48.906;8.808;2023-05-07T00:46:30;13.50;99.90
38726;DHT22;24474;48.906;8.808;2023-05-07T00:48:59;13.50;99.90
38726;DHT22;24474;48.906;8.808;2023-05-07T00:51:26;13.50;99.90
38726;DHT22;24474;48.906;8.808;2023-05-07T00:53:54;13.50;99.90
38726;DHT22;24474;48.906;8.808;2023-05-07T00:56:21;13.40;99.90
38726;DHT22;24474;48.906;8.808;2023-05-07T00:58:48;13.40;99.90
38726;DHT22;24474;48.906;8.808;2023-05-07T01:01:17;13.40;99.90
38726;DHT22;24474;48.906;8.808;2023-05-07T01:03:44;13.40;99.90
38726;DHT22;24474;48.906;8.808;2023-05-07T01:06:12;13.30;99.90
38726;DHT22;24474;48.906;8.808;2023-05-07T01:08:43;13.40;99.90
38726;DHT22;24474;48.906;8.808;2023-05-07T01:11:11;13.40;99.90
38726;DHT22;24474;48.906;8.808;2023-05-07T01:13:39;13.30;99.90
38726;DHT22;24474;48.906;8.808;2023-05-07T01:16:08;13.30;99.90
38726;DHT22;24474;48.906;8.808;2023-05-07T01:18:42;13.30;99.90
38726;DHT22;24474;48.906;8.808;2023-05-07T01:21:11;13.20;99.90
38726;DHT22;24474;48.906;8.808;2023-05-07T01:23:38;13.20;99.90
38726;DHT22;24474;48.906;8.808;2023-05-07T01:26:06;13.20;99.90
38726;DHT22;24474;48.906;8.808;2023-05-07T01:28:31;13.20;99.90
38726;DHT22;24474;48.906;8.808;2023-05-07T01:31:03;13.10;99.90
38726;DHT22;24474;48.906;8.808;2023-05-07T01:33:34;13.20;99.90
38726;DHT22;24474;48.906;8.808;2023-05-07T01:36:01;13.10;99.90
38726;DHT22;24474;48.906;8.808;2023-05-07T01:38:33;13.10;99.90
38726;DHT22;24474;48.906;8.808;2023-05-07T01:41:01;13.10;99.90
38726;DHT22;24474;48.906;8.808;2023-05-07T01:43:29;13.10;99.90
38726;DHT22;24474;48.906;8.808;2023-05-07T01:45:57;13.10;99.90
38726;DHT22;24474;48.906;8.808;2023-05-07T01:48:25;13.20;99.90
38726;DHT22;24474;48.906;8.808;2023-05-07T01:50:53;13.10;99.90
38726;DHT22;24474;48.906;8.808;2023-05-07T01:53:20;13.20;99.90
38726;DHT22;24474;48.906;8.808;2023-05-07T01:55:47;13.20;99.90
38726;DHT22;24474;48.906;8.808;2023-05-07T01:58:13;13.10;99.90
38726;DHT22;24474;48.906;8.808;2023-05-07T02:00:40;13.10;99.90
38726;DHT22;24474;48.906;8.808;2023-05-07T02:03:07;13.10;99.90
38726;DHT22;24474;48.906;8.808;2023-05-07T02:05:34;13.10;99.90
38726;DHT22;24474;48.906;8.808;2023-05-07T02:08:01;13.10;99.90
38726;DHT22;24474;48.906;8.808;2023-05-07T02:10:28;13.10;99.90
38726;DHT22;24474;48.906;8.808;2023-05-07T02:12:55;13.10;99.90
38726;DHT22;24474;48.906;8.808;2023-05-07T02:15:23;13.10;99.90
38726;DHT22;24474;48.906;8.808;2023-05-07T02:18:02;13.10;99.90
38726;DHT22;24474;48.906;8.808;2023-05-07T02:20:29;13.10;99.90
38726;DHT22;24474;48.906;8.808;2023-05-07T02:22:54;13.20;99.90
38726;DHT22;24474;48.906;8.808;2023-05-07T02:25:21;13.20;99.90
38726;DHT22;24474;48.906;8.808;2023-05-07T02:27:47;13.20;99.90
38726;DHT22;24474;48.906;8.808;2023-05-07T02:30:13;13.20;99.90
38726;DHT22;24474;48.906;8.808;2023-05-07T02:32:40;13.20;99.90
38726;DHT22;24474;48.906;8.808;2023-05-07T02:35:07;13.20;99.90
38726;DHT22;24474;48.906;8.808;2023-05-07T02:37:34;13.10;99.90
38726;DHT22;24474;48.906;8.808;2023-05-07T02:40:05;13.20;99.90
38726;DHT22;24474;48.906;8.808;2023-05-07T02:42:32;13.20;99.90
38726;DHT22;24474;48.906;8.808;2023-05-07T02:44:58;13.10;99.90
38726;DHT22;24474;48.906;8.808;2023-05-07T02:47:25;13.10;99.90
38726;DHT22;24474;48.906;8.808;2023-05-07T02:49:55;13.10;99.90
38726;DHT22;24474;48.906;8.808;2023-05-07T02:52:21;13.10;99.90
38726;DHT22;24474;48.906;8.808;2023-05-07T02:54:48;13.10;99.90
38726;DHT22;24474;48.906;8.808;2023-05-07T02:57:14;13.10;99.90
38726;DHT22;24474;48.906;8.808;2023-05-07T02:59:42;13.10;99.90
38726;DHT22;24474;48.906;8.808;2023-05-07T03:02:09;13.10;99.90
38726;DHT22;24474;48.906;8.808;2023-05-07T03:04:36;13.10;99.90
38726;DHT22;24474;48.906;8.808;2023-05-07T03:07:05;13.10;99.90
38726;DHT22;24474;48.906;8.808;2023-05-07T03:09:32;13.10;99.90
38726;DHT22;24474;48.906;8.808;2023-05-07T03:11:58;13.00;99.90
38726;DHT22;24474;48.906;8.808;2023-05-07T03:14:24;13.00;99.90
38726;DHT22;24474;48.906;8.808;2023-05-07T03:16:51;13.00;99.90
38726;DHT22;24474;48.906;8.808;2023-05-07T03:19:19;12.90;99.90
38726;DHT22;24474;48.906;8.808;2023-05-07T03:21:44;12.90;99.90
38726;DHT22;24474;48.906;8.808;2023-05-07T03:24:10;12.90;99.90
38726;DHT22;24474;48.906;8.808;2023-05-07T03:26:36;12.90;99.90
38726;DHT22;24474;48.906;8.808;2023-05-07T03:29:03;12.90;99.90
38726;DHT22;24474;48.906;8.808;2023-05-07T03:31:30;12.90;99.90
38726;DHT22;24474;48.906;8.808;2023-05-07T03:33:57;12.80;99.90
38726;DHT22;24474;48.906;8.808;2023-05-07T03:36:24;12.80;99.90
38726;DHT22;24474;48.906;8.808;2023-05-07T03:38:53;12.90;99.90
38726;DHT22;24474;48.906;8.808;2023-05-07T03:41:20;12.90;99.90
38726;DHT22;24474;48.906;8.808;2023-05-07T03:43:46;12.80;99.90
38726;DHT22;24474;48.906;8.808;2023-05-07T03:46:13;12.90;99.90
38726;DHT22;24474;48.906;8.808;2023-05-07T03:48:40;12.80;99.90
38726;DHT22;24474;48.906;8.808;2023-05-07T03:51:07;12.80;99.90
38726;DHT22;24474;48.906;8.808;2023-05-07T03:53:32;12.80;99.90
38726;DHT22;24474;48.906;8.808;2023-05-07T03:55:59;12.80;99.90
38726;DHT22;24474;48.906;8.808;2023-05-07T03:58:26;12.80;99.90
38726;DHT22;24474;48.906;8.808;2023-05-07T04:00:53;12.80;99.90
38726;DHT22;24474;48.906;8.808;2023-05-07T04:03:20;12.80;99.90
38726;DHT22;24474;48.906;8.808;2023-05-07T04:05:47;12.70;99.90
38726;DHT22;24474;48.906;8.808;2023-05-07T04:08:14;12.80;99.90
38726;DHT22;24474;48.906;8.808;2023-05-07T04:10:39;12.70;99.90
38726;DHT22;24474;48.906;8.808;2023-05-07T04:13:06;12.70;99.90
38726;DHT22;24474;48.906;8.808;2023-05-07T04:15:33;12.70;99.90
38726;DHT22;24474;48.906;8.808;2023-05-07T04:17:59;12.70;99.90
38726;DHT22;24474;48.906;8.808;2023-05-07T04:20:26;12.70;99.90
38726;DHT22;24474;48.906;8.808;2023-05-07T04:22:51;12.80;99.90
38726;DHT22;24474;48.906;8.808;2023-05-07T04:25:18;12.80;99.90
38726;DHT22;24474;48.906;8.808;2023-05-07T04:27:45;12.80;99.90
38726;DHT22;24474;48.906;8.808;2023-05-07T04:30:13;12.80;99.90
38726;DHT22;24474;48.906;8.808;2023-05-07T04:32:40;12.80;99.90
38726;DHT22;24474;48.906;8.808;2023-05-07T04:35:08;12.80;99.90
38726;DHT22;24474;48.906;8.808;2023-05-07T04:37:35;12.70;99.90
38726;DHT22;24474;48.906;8.808;2023-05-07T04:40:01;12.70;99.90
38726;DHT22;24474;48.906;8.808;2023-05-07T04:42:28;12.80;99.90
38726;DHT22;24474;48.906;8.808;2023-05-07T04:44:54;12.70;99.90
38726;DHT22;24474;48.906;8.808;2023-05-07T04:47:20;12.80;99.90
38726;DHT22;24474;48.906;8.808;2023-05-07T04:49:47;12.80;99.90
38726;DHT22;24474;48.906;8.808;2023-05-07T04:52:12;12.80;99.90
38726;DHT22;24474;48.906;8.808;2023-05-07T04:54:39;12.90;99.90
38726;DHT22;24474;48.906;8.808;2023-05-07T04:57:06;12.90;99.90
38726;DHT22;24474;48.906;8.808;2023-05-07T04:59:33;12.90;99.90
38726;DHT22;24474;48.906;8.808;2023-05-07T05:02:00;12.90;99.90
38726;DHT22;24474;48.906;8.808;2023-05-07T05:04:29;12.90;99.90
38726;DHT22;24474;48.906;8.808;2023-05-07T05:06:57;13.00;99.90
38726;DHT22;24474;48.906;8.808;2023-05-07T05:09:23;13.00;99.90
38726;DHT22;24474;48.906;8.808;2023-05-07T05:11:50;13.00;99.90
38726;DHT22;24474;48.906;8.808;2023-05-07T05:14:21;13.00;99.90
38726;DHT22;24474;48.906;8.808;2023-05-07T05:16:47;13.10;99.90
38726;DHT22;24474;48.906;8.808;2023-05-07T05:19:13;13.10;99.90
38726;DHT22;24474;48.906;8.808;2023-05-07T05:21:40;13.10;99.90
38726;DHT22;24474;48.906;8.808;2023-05-07T05:24:07;13.20;99.90
38726;DHT22;24474;48.906;8.808;2023-05-07T05:26:36;13.20;99.90
38726;DHT22;24474;48.906;8.808;2023-05-07T05:29:04;13.30;99.90
38726;DHT22;24474;48.906;8.808;2023-05-07T05:31:32;13.40;99.90
38726;DHT22;24474;48.906;8.808;2023-05-07T05:34:00;13.40;99.90
38726;DHT22;24474;48.906;8.808;2023-05-07T05:36:28;13.50;99.90
38726;DHT22;24474;48.906;8.808;2023-05-07T05:38:55;13.50;99.90
38726;DHT22;24474;48.906;8.808;2023-05-07T05:41:21;13.50;99.90
38726;DHT22;24474;48.906;8.808;2023-05-07T05:43:49;13.50;99.90
38726;DHT22;24474;48.906;8.808;2023-05-07T05:46:16;13.60;99.90
38726;DHT22;24474;48.906;8.808;2023-05-07T05:48:42;13.60;99.90
38726;DHT22;24474;48.906;8.808;2023-05-07T05:51:08;13.60;99.90
38726;DHT22;24474;48.906;8.808;2023-05-07T05:53:35;13.70;99.90
38726;DHT22;24474;48.906;8.808;2023-05-07T05:56:02;13.70;99.90
38726;DHT22;24474;48.906;8.808;2023-05-07T05:58:29;13.80;99.90
38726;DHT22;24474;48.906;8.808;2023-05-07T06:00:56;13.80;99.90
38726;DHT22;24474;48.906;8.808;2023-05-07T06:03:25;13.90;99.90
38726;DHT22;24474;48.906;8.808;2023-05-07T06:05:51;13.90;99.90
38726;DHT22;24474;48.906;8.808;2023-05-07T06:08:17;14.00;99.90
38726;DHT22;24474;48.906;8.808;2023-05-07T06:10:45;14.00;99.90
38726;DHT22;24474;48.906;8.808;2023-05-07T06:13:10;14.20;99.90
38726;DHT22;24474;48.906;8.808;2023-05-07T06:15:37;14.30;99.90
38726;DHT22;24474;48.906;8.808;2023-05-07T06:18:03;14.40;99.90
38726;DHT22;24474;48.906;8.808;2023-05-07T06:20:30;14.40;99.90
38726;DHT22;24474;48.906;8.808;2023-05-07T06:22:57;14.50;99.90
38726;DHT22;24474;48.906;8.808;2023-05-07T06:25:24;14.60;99.90
38726;DHT22;24474;48.906;8.808;2023-05-07T06:27:51;14.60;99.90
38726;DHT22;24474;48.906;8.808;2023-05-07T06:30:16;14.60;99.90
38726;DHT22;24474;48.906;8.808;2023-05-07T06:32:43;14.70;99.90
38726;DHT22;24474;48.906;8.808;2023-05-07T06:35:12;14.70;99.90
38726;DHT22;24474;48.906;8.808;2023-05-07T06:37:39;14.80;99.90
38726;DHT22;24474;48.906;8.808;2023-05-07T06:40:06;14.80;99.90
38726;DHT22;24474;48.906;8.808;2023-05-07T06:42:32;14.90;99.90
38726;DHT22;24474;48.906;8.808;2023-05-07T06:44:59;15.00;99.90
38726;DHT22;24474;48.906;8.808;2023-05-07T06:47:25;15.10;99.90
38726;DHT22;24474;48.906;8.808;2023-05-07T06:49:50;15.30;99.90
38726;DHT22;24474;48.906;8.808;2023-05-07T06:52:16;15.40;99.90
38726;DHT22;24474;48.906;8.808;2023-05-07T06:54:46;15.40;99.90
38726;DHT22;24474;48.906;8.808;2023-05-07T06:57:21;15.50;99.90
38726;DHT22;24474;48.906;8.808;2023-05-07T06:59:47;15.60;99.90
38726;DHT22;24474;48.906;8.808;2023-05-07T07:02:22;15.60;99.90
38726;DHT22;24474;48.906;8.808;2023-05-07T07:04:48;15.60;99.90
38726;DHT22;24474;48.906;8.808;2023-05-07T07:07:15;15.70;99.90
38726;DHT22;24474;48.906;8.808;2023-05-07T07:09:44;15.90;99.90
38726;DHT22;24474;48.906;8.808;2023-05-07T07:12:10;15.90;99.90
38726;DHT22;24474;48.906;8.808;2023-05-07T07:14:36;16.00;99.90
38726;DHT22;24474;48.906;8.808;2023-05-07T07:17:01;16.10;99.90
38726;DHT22;24474;48.906;8.808;2023-05-07T07:19:28;16.10;99.90
38726;DHT22;24474;48.906;8.808;2023-05-07T07:21:55;16.10;99.90
38726;DHT22;24474;48.906;8.808;2023-05-07T07:24:22;16.20;99.90
38726;DHT22;24474;48.906;8.808;2023-05-07T07:26:49;16.20;99.90
38726;DHT22;24474;48.906;8.808;2023-05-07T07:29:17;16.20;99.90
38726;DHT22;24474;48.906;8.808;2023-05-07T07:31:47;16.20;99.90
38726;DHT22;24474;48.906;8.808;2023-05-07T07:34:13;16.20;99.90
38726;DHT22;24474;48.906;8.808;2023-05-07T07:36:40;16.20;99.90
38726;DHT22;24474;48.906;8.808;2023-05-07T07:39:06;16.20;99.90
38726;DHT22;24474;48.906;8.808;2023-05-07T07:41:32;16.30;99.90
38726;DHT22;24474;48.906;8.808;2023-05-07T07:44:00;16.30;99.90
38726;DHT22;24474;48.906;8.808;2023-05-07T07:46:31;16.30;99.90
38726;DHT22;24474;48.906;8.808;2023-05-07T07:48:58;16.30;99.90
38726;DHT22;24474;48.906;8.808;2023-05-07T07:51:27;16.30;99.90
38726;DHT22;24474;48.906;8.808;2023-05-07T07:53:54;16.30;99.90
38726;DHT22;24474;48.906;8.808;2023-05-07T07:56:21;16.40;99.90
38726;DHT22;24474;48.906;8.808;2023-05-07T07:58:47;16.50;99.90
38726;DHT22;24474;48.906;8.808;2023-05-07T08:01:15;16.50;99.90
38726;DHT22;24474;48.906;8.808;2023-05-07T08:03:45;16.50;99.90
38726;DHT22;24474;48.906;8.808;2023-05-07T08:06:11;16.60;99.90
38726;DHT22;24474;48.906;8.808;2023-05-07T08:08:36;16.60;99.90
38726;DHT22;24474;48.906;8.808;2023-05-07T08:11:02;16.70;99.90
38726;DHT22;24474;48.906;8.808;2023-05-07T08:13:28;16.70;99.90
38726;DHT22;24474;48.906;8.808;2023-05-07T08:15:54;16.80;99.90
38726;DHT22;24474;48.906;8.808;2023-05-07T08:18:19;16.80;99.90
38726;DHT22;24474;48.906;8.808;2023-05-07T08:20:45;16.90;99.90
38726;DHT22;24474;48.906;8.808;2023-05-07T08:23:12;17.00;99.90
38726;DHT22;24474;48.906;8.808;2023-05-07T08:25:39;16.90;99.90
38726;DHT22;24474;48.906;8.808;2023-05-07T08:28:05;17.00;99.90
38726;DHT22;24474;48.906;8.808;2023-05-07T08:30:32;17.10;99.90
38726;DHT22;24474;48.906;8.808;2023-05-07T08:32:58;17.10;99.90
38726;DHT22;24474;48.906;8.808;2023-05-07T08:35:26;17.20;99.90
38726;DHT22;24474;48.906;8.808;2023-05-07T08:37:53;17.20;99.90
38726;DHT22;24474;48.906;8.808;2023-05-07T08:40:24;17.30;99.90
38726;DHT22;24474;48.906;8.808;2023-05-07T08:42:53;17.30;99.90
38726;DHT22;24474;48.906;8.808;2023-05-07T08:45:19;17.30;99.90
38726;DHT22;24474;48.906;8.808;2023-05-07T08:47:56;17.30;99.90
38726;DHT22;24474;48.906;8.808;2023-05-07T08:50:23;17.40;99.90
38726;DHT22;24474;48.906;8.808;2023-05-07T08:52:49;17.40;99.90
38726;DHT22;24474;48.906;8.808;2023-05-07T08:55:15;17.50;99.90
38726;DHT22;24474;48.906;8.808;2023-05-07T08:57:41;17.50;99.90
38726;DHT22;24474;48.906;8.808;2023-05-07T09:00:07;17.60;99.90
38726;DHT22;24474;48.906;8.808;2023-05-07T09:02:35;17.70;99.90
38726;DHT22;24474;48.906;8.808;2023-05-07T09:05:01;17.80;99.90
38726;DHT22;24474;48.906;8.808;2023-05-07T09:07:27;17.80;99.90
38726;DHT22;24474;48.906;8.808;2023-05-07T09:09:53;17.90;99.90
38726;DHT22;24474;48.906;8.808;2023-05-07T09:12:21;18.00;99.90
38726;DHT22;24474;48.906;8.808;2023-05-07T09:14:47;18.10;99.90
38726;DHT22;24474;48.906;8.808;2023-05-07T09:17:13;18.10;99.90
38726;DHT22;24474;48.906;8.808;2023-05-07T09:19:43;18.20;99.90
38726;DHT22;24474;48.906;8.808;2023-05-07T09:22:08;18.20;99.90
38726;DHT22;24474;48.906;8.808;2023-05-07T09:24:34;18.20;99.90
38726;DHT22;24474;48.906;8.808;2023-05-07T09:27:06;18.40;99.90
38726;DHT22;24474;48.906;8.808;2023-05-07T09:29:32;18.50;99.90
38726;DHT22;24474;48.906;8.808;2023-05-07T09:32:10;18.50;99.90
38726;DHT22;24474;48.906;8.808;2023-05-07T09:34:36;18.60;99.90
38726;DHT22;24474;48.906;8.808;2023-05-07T09:37:02;18.60;99.90
38726;DHT22;24474;48.906;8.808;2023-05-07T09:39:43;18.60;99.90
38726;DHT22;24474;48.906;8.808;2023-05-07T09:42:12;18.70;99.90
38726;DHT22;24474;48.906;8.808;2023-05-07T09:44:40;18.70;99.90
38726;DHT22;24474;48.906;8.808;2023-05-07T09:47:07;18.80;99.90
38726;DHT22;24474;48.906;8.808;2023-05-07T09:49:35;18.90;99.90
38726;DHT22;24474;48.906;8.808;2023-05-07T09:52:03;18.90;99.90
38726;DHT22;24474;48.906;8.808;2023-05-07T09:54:29;19.00;99.90
38726;DHT22;24474;48.906;8.808;2023-05-07T09:56:56;19.00;99.90
38726;DHT22;24474;48.906;8.808;2023-05-07T09:59:22;19.00;99.90
38726;DHT22;24474;48.906;8.808;2023-05-07T10:01:48;19.10;99.90
38726;DHT22;24474;48.906;8.808;2023-05-07T10:04:14;19.20;99.90
38726;DHT22;24474;48.906;8.808;2023-05-07T10:06:40;19.10;99.90
38726;DHT22;24474;48.906;8.808;2023-05-07T10:09:07;19.20;99.90
38726;DHT22;24474;48.906;8.808;2023-05-07T10:11:34;19.20;99.90
38726;DHT22;24474;48.906;8.808;2023-05-07T10:14:04;19.20;99.90
38726;DHT22;24474;48.906;8.808;2023-05-07T10:16:36;19.20;99.90
38726;DHT22;24474;48.906;8.808;2023-05-07T10:19:09;19.20;99.90
38726;DHT22;24474;48.906;8.808;2023-05-07T10:21:48;19.20;99.90
38726;DHT22;24474;48.906;8.808;2023-05-07T10:24:22;19.20;99.90
38726;DHT22;24474;48.906;8.808;2023-05-07T10:26:52;19.20;99.90
38726;DHT22;24474;48.906;8.808;2023-05-07T10:35:01;19.40;99.90
38726;DHT22;24474;48.906;8.808;2023-05-07T10:37:28;19.50;99.90
38726;DHT22;24474;48.906;8.808;2023-05-07T10:39:54;19.50;99.90
38726;DHT22;24474;48.906;8.808;2023-05-07T10:42:20;19.60;99.90
38726;DHT22;24474;48.906;8.808;2023-05-07T10:44:47;19.70;99.90
38726;DHT22;24474;48.906;8.808;2023-05-07T10:47:14;19.70;99.90
38726;DHT22;24474;48.906;8.808;2023-05-07T10:52:21;19.80;99.90
38726;DHT22;24474;48.906;8.808;2023-05-07T10:57:47;19.80;99.90
38726;DHT22;24474;48.906;8.808;2023-05-07T11:05:27;19.90;99.90
38726;DHT22;24474;48.906;8.808;2023-05-07T11:07:57;19.90;99.90
38726;DHT22;24474;48.906;8.808;2023-05-07T11:10:23;19.90;99.90
38726;DHT22;24474;48.906;8.808;2023-05-07T11:12:50;20.00;99.90
38726;DHT22;24474;48.906;8.808;2023-05-07T11:15:34;20.00;99.90
38726;DHT22;24474;48.906;8.808;2023-05-07T11:18:00;20.00;99.90
38726;DHT22;24474;48.906;8.808;2023-05-07T11:26:10;20.00;99.90
38726;DHT22;24474;48.906;8.808;2023-05-07T11:28:38;20.10;99.90
38726;DHT22;24474;48.906;8.808;2023-05-07T11:31:04;20.10;99.90
38726;DHT22;24474;48.906;8.808;2023-05-07T11:33:31;20.20;99.90
38726;DHT22;24474;48.906;8.808;2023-05-07T11:35:57;20.20;99.90
38726;DHT22;24474;48.906;8.808;2023-05-07T11:38:23;20.20;99.90
38726;DHT22;24474;48.906;8.808;2023-05-07T11:40:56;20.30;99.90
38726;DHT22;24474;48.906;8.808;2023-05-07T11:43:22;20.40;99.90
38726;DHT22;24474;48.906;8.808;2023-05-07T11:45:48;20.40;99.90
38726;DHT22;24474;48.906;8.808;2023-05-07T11:48:16;20.50;99.90
38726;DHT22;24474;48.906;8.808;2023-05-07T11:51:00;20.50;99.90
38726;DHT22;24474;48.906;8.808;2023-05-07T11:53:42;20.60;99.90
38726;DHT22;24474;48.906;8.808;2023-05-07T11:56:12;20.70;99.90
38726;DHT22;24474;48.906;8.808;2023-05-07T11:58:39;20.70;99.90
38726;DHT22;24474;48.906;8.808;2023-05-07T12:01:07;20.70;99.90
38726;DHT22;24474;48.906;8.808;2023-05-07T12:03:35;20.70;99.90
38726;DHT22;24474;48.906;8.808;2023-05-07T12:06:01;20.80;99.90
38726;DHT22;24474;48.906;8.808;2023-05-07T12:08:28;20.80;99.90
38726;DHT22;24474;48.906;8.808;2023-05-07T12:10:54;20.80;99.90
38726;DHT22;24474;48.906;8.808;2023-05-07T12:13:24;20.90;99.90
38726;DHT22;24474;48.906;8.808;2023-05-07T12:15:54;20.90;99.90
38726;DHT22;24474;48.906;8.808;2023-05-07T12:18:22;20.90;99.90
38726;DHT22;24474;48.906;8.808;2023-05-07T12:20:49;20.90;99.90
38726;DHT22;24474;48.906;8.808;2023-05-07T12:23:16;20.90;99.90
38726;DHT22;24474;48.906;8.808;2023-05-07T12:25:43;20.90;99.90
38726;DHT22;24474;48.906;8.808;2023-05-07T12:28:17;20.90;99.90
38726;DHT22;24474;48.906;8.808;2023-05-07T12:30:46;21.00;99.90
38726;DHT22;24474;48.906;8.808;2023-05-07T12:33:18;21.00;99.90
38726;DHT22;24474;48.906;8.808;2023-05-07T12:35:47;20.90;99.90
38726;DHT22;24474;48.906;8.808;2023-05-07T12:38:15;20.90;99.90
38726;DHT22;24474;48.906;8.808;2023-05-07T12:40:47;20.90;99.90
38726;DHT22;24474;48.906;8.808;2023-05-07T12:43:28;20.90;99.90
38726;DHT22;24474;48.906;8.808;2023-05-07T12:46:14;20.90;99.90
38726;DHT22;24474;48.906;8.808;2023-05-07T12:48:46;20.90;99.90
38726;DHT22;24474;48.906;8.808;2023-05-07T12:51:11;20.80;99.90
38726;DHT22;24474;48.906;8.808;2023-05-07T12:53:43;20.70;99.90
38726;DHT22;24474;48.906;8.808;2023-05-07T12:56:12;20.70;99.90
38726;DHT22;24474;48.906;8.808;2023-05-07T12:58:43;20.60;99.90
38726;DHT22;24474;48.906;8.808;2023-05-07T13:01:11;20.60;99.90
38726;DHT22;24474;48.906;8.808;2023-05-07T13:03:51;20.50;99.90
38726;DHT22;24474;48.906;8.808;2023-05-07T13:06:17;20.50;99.90
38726;DHT22;24474;48.906;8.808;2023-05-07T13:08:43;20.30;99.90
38726;DHT22;24474;48.906;8.808;2023-05-07T13:11:11;20.20;99.90
38726;DHT22;24474;48.906;8.808;2023-05-07T13:13:38;20.00;99.90
38726;DHT22;24474;48.906;8.808;2023-05-07T13:16:08;19.90;99.90
38726;DHT22;24474;48.906;8.808;2023-05-07T13:18:34;19.80;99.90
38726;DHT22;24474;48.906;8.808;2023-05-07T13:21:02;19.70;99.90
38726;DHT22;24474;48.906;8.808;2023-05-07T13:23:32;19.50;99.90
38726;DHT22;24474;48.906;8.808;2023-05-07T13:25:58;19.40;99.90
38726;DHT22;24474;48.906;8.808;2023-05-07T13:28:26;19.40;99.90
38726;DHT22;24474;48.906;8.808;2023-05-07T13:30:52;19.40;99.90
38726;DHT22;24474;48.906;8.808;2023-05-07T13:33:31;19.30;99.90
38726;DHT22;24474;48.906;8.808;2023-05-07T13:35:59;19.30;99.90
38726;DHT22;24474;48.906;8.808;2023-05-07T13:38:28;19.20;99.90
38726;DHT22;24474;48.906;8.808;2023-05-07T13:40:55;19.10;99.90
38726;DHT22;24474;48.906;8.808;2023-05-07T13:43:21;19.10;99.90
38726;DHT22;24474;48.906;8.808;2023-05-07T13:45:47;19.00;99.90
38726;DHT22;24474;48.906;8.808;2023-05-07T13:48:15;18.90;99.90
38726;DHT22;24474;48.906;8.808;2023-05-07T13:50:43;18.90;99.90
38726;DHT22;24474;48.906;8.808;2023-05-07T13:53:15;18.90;99.90
38726;DHT22;24474;48.906;8.808;2023-05-07T13:55:45;18.80;99.90
38726;DHT22;24474;48.906;8.808;2023-05-07T13:58:12;18.80;99.90
38726;DHT22;24474;48.906;8.808;2023-05-07T14:00:38;18.70;99.90
38726;DHT22;24474;48.906;8.808;2023-05-07T14:03:09;18.70;99.90
38726;DHT22;24474;48.906;8.808;2023-05-07T14:05:41;18.60;99.90
38726;DHT22;24474;48.906;8.808;2023-05-07T14:08:18;18.40;99.90
38726;DHT22;24474;48.906;8.808;2023-05-07T14:10:46;18.40;99.90
38726;DHT22;24474;48.906;8.808;2023-05-07T14:13:11;18.40;99.90
38726;DHT22;24474;48.906;8.808;2023-05-07T14:15:37;18.40;99.90
38726;DHT22;24474;48.906;8.808;2023-05-07T14:18:03;18.30;99.90
38726;DHT22;24474;48.906;8.808;2023-05-07T14:20:29;18.30;99.90
38726;DHT22;24474;48.906;8.808;2023-05-07T14:23:11;18.30;99.90
38726;DHT22;24474;48.906;8.808;2023-05-07T14:25:37;18.30;99.90
38726;DHT22;24474;48.906;8.808;2023-05-07T14:28:06;18.30;99.90
38726;DHT22;24474;48.906;8.808;2023-05-07T14:30:36;18.30;99.90
38726;DHT22;24474;48.906;8.808;2023-05-07T14:33:32;18.40;99.90
38726;DHT22;24474;48.906;8.808;2023-05-07T14:36:12;18.30;99.90
38726;DHT22;24474;48.906;8.808;2023-05-07T14:38:42;18.30;99.90
38726;DHT22;24474;48.906;8.808;2023-05-07T14:41:16;18.30;99.90
38726;DHT22;24474;48.906;8.808;2023-05-07T14:43:49;18.30;99.90
38726;DHT22;24474;48.906;8.808;2023-05-07T14:46:29;18.20;99.90
38726;DHT22;24474;48.906;8.808;2023-05-07T14:49:02;18.20;99.90
38726;DHT22;24474;48.906;8.808;2023-05-07T14:51:30;18.20;99.90
38726;DHT22;24474;48.906;8.808;2023-05-07T14:53:57;18.20;99.90
38726;DHT22;24474;48.906;8.808;2023-05-07T14:56:23;18.20;99.90
38726;DHT22;24474;48.906;8.808;2023-05-07T14:58:51;18.20;99.90
38726;DHT22;24474;48.906;8.808;2023-05-07T15:01:20;18.20;99.90
38726;DHT22;24474;48.906;8.808;2023-05-07T15:03:46;18.10;99.90
38726;DHT22;24474;48.906;8.808;2023-05-07T15:06:13;18.20;99.90
38726;DHT22;24474;48.906;8.808;2023-05-07T15:08:41;18.20;99.90
38726;DHT22;24474;48.906;8.808;2023-05-07T15:11:09;18.10;99.90
38726;DHT22;24474;48.906;8.808;2023-05-07T15:13:36;18.10;99.90
38726;DHT22;24474;48.906;8.808;2023-05-07T15:16:02;18.10;99.90
38726;DHT22;24474;48.906;8.808;2023-05-07T15:18:29;18.10;99.90
38726;DHT22;24474;48.906;8.808;2023-05-07T15:20:57;18.10;99.90
38726;DHT22;24474;48.906;8.808;2023-05-07T15:23:24;18.10;99.90
38726;DHT22;24474;48.906;8.808;2023-05-07T15:25:52;18.10;99.90
38726;DHT22;24474;48.906;8.808;2023-05-07T15:28:18;18.10;99.90
38726;DHT22;24474;48.906;8.808;2023-05-07T15:30:44;18.10;99.90
38726;DHT22;24474;48.906;8.808;2023-05-07T15:33:10;18.20;99.90
38726;DHT22;24474;48.906;8.808;2023-05-07T15:35:39;18.20;99.90
38726;DHT22;24474;48.906;8.808;2023-05-07T15:38:06;18.20;99.90
38726;DHT22;24474;48.906;8.808;2023-05-07T15:40:36;18.10;99.90
38726;DHT22;24474;48.906;8.808;2023-05-07T15:43:09;18.10;99.90
38726;DHT22;24474;48.906;8.808;2023-05-07T15:45:43;18.10;99.90
38726;DHT22;24474;48.906;8.808;2023-05-07T15:48:13;18.10;99.90
38726;DHT22;24474;48.906;8.808;2023-05-07T15:50:38;18.10;99.90
38726;DHT22;24474;48.906;8.808;2023-05-07T15:53:08;18.10;99.90
38726;DHT22;24474;48.906;8.808;2023-05-07T15:55:34;18.10;99.90
38726;DHT22;24474;48.906;8.808;2023-05-07T15:58:00;18.00;99.90